createdAt,value
2024-01-08T00:00:54.184Z,7.71
2024-01-08T00:03:21.004Z,7.71
2024-01-08T00:05:48.166Z,7.69
2024-01-08T00:08:15.983Z,7.66
2024-01-08T00:10:42.778Z,7.67
2024-01-08T00:13:10.815Z,7.68
2024-01-08T00:15:37.780Z,7.68
2024-01-08T00:18:05.056Z,7.65
2024-01-08T00:20:32.252Z,7.66
2024-01-08T00:22:59.193Z,7.74
2024-01-08T00:25:26.278Z,7.68
2024-01-08T00:27:53.304Z,7.66
2024-01-08T00:30:20.525Z,7.65
2024-01-08T00:32:49.163Z,7.63
2024-01-08T00:35:16.806Z,7.68
2024-01-08T00:37:43.805Z,7.71
2024-01-08T00:40:11.802Z,7.76
2024-01-08T00:42:40.657Z,7.76
2024-01-08T00:45:08.667Z,7.67
2024-01-08T00:47:35.802Z,7.67
2024-01-08T00:50:04.151Z,7.65
2024-01-08T00:52:31.245Z,7.62
2024-01-08T00:55:03.678Z,7.63
2024-01-08T00:57:31.174Z,7.63
2024-01-08T00:59:58.209Z,7.61
2024-01-08T01:02:26.468Z,7.61
2024-01-08T01:04:53.684Z,7.61
2024-01-08T01:07:20.579Z,7.61
2024-01-08T01:09:47.828Z,7.58
2024-01-08T01:12:15.208Z,7.60
2024-01-08T01:14:42.309Z,7.59
2024-01-08T01:17:09.387Z,7.59
2024-01-08T01:19:36.163Z,7.60
2024-01-08T01:22:03.019Z,7.61
2024-01-08T01:24:29.856Z,7.59
2024-01-08T01:26:56.917Z,7.60
2024-01-08T01:29:23.783Z,7.63
2024-01-08T01:31:50.590Z,7.60
2024-01-08T01:34:19.144Z,7.63
2024-01-08T01:36:47.167Z,7.62
2024-01-08T01:39:14.143Z,7.62
2024-01-08T01:41:41.217Z,7.55
2024-01-08T01:44:08.080Z,7.56
2024-01-08T01:46:43.104Z,7.54
2024-01-08T01:49:14.321Z,7.55
2024-01-08T01:51:42.926Z,7.55
2024-01-08T01:54:13.148Z,7.59
2024-01-08T01:56:42.257Z,7.60
2024-01-08T01:59:09.917Z,7.59
2024-01-08T02:01:37.585Z,7.59
2024-01-08T02:04:05.444Z,7.66
2024-01-08T02:06:32.185Z,7.63
2024-01-08T02:08:59.089Z,7.54
2024-01-08T02:11:26.032Z,7.50
2024-01-08T02:13:52.908Z,7.50
2024-01-08T02:16:19.912Z,7.52
2024-01-08T02:18:47.358Z,7.54
2024-01-08T02:21:14.173Z,7.49
2024-01-08T02:23:41.018Z,7.49
2024-01-08T02:26:08.618Z,7.49
2024-01-08T02:28:35.466Z,7.49
2024-01-08T02:31:02.267Z,7.46
2024-01-08T02:33:29.158Z,7.50
2024-01-08T02:35:56.268Z,7.51
2024-01-08T02:38:23.356Z,7.52
2024-01-08T02:40:50.266Z,7.51
2024-01-08T02:43:17.149Z,7.48
2024-01-08T02:45:43.882Z,7.49
2024-01-08T02:48:11.181Z,7.46
2024-01-08T02:50:38.092Z,7.49
2024-01-08T02:53:05.604Z,7.51
2024-01-08T02:55:32.505Z,7.49
2024-01-08T02:57:59.256Z,7.46
2024-01-08T03:00:26.153Z,7.46
2024-01-08T03:02:53.228Z,7.45
2024-01-08T03:05:19.988Z,7.42
2024-01-08T03:07:46.785Z,7.42
2024-01-08T03:10:13.490Z,7.44
2024-01-08T03:12:40.336Z,7.49
2024-01-08T03:15:07.639Z,7.51
2024-01-08T03:17:35.738Z,7.53
2024-01-08T03:20:04.321Z,7.51
2024-01-08T03:22:31.099Z,7.47
2024-01-08T03:24:58.085Z,7.45
2024-01-08T03:27:24.870Z,7.42
2024-01-08T03:29:51.873Z,7.44
2024-01-08T03:32:19.002Z,7.48
2024-01-08T03:34:47.647Z,7.48
2024-01-08T03:37:14.410Z,7.43
2024-01-08T03:39:41.296Z,7.44
2024-01-08T03:42:08.226Z,7.42
2024-01-08T03:44:35.012Z,7.42
2024-01-08T03:47:01.996Z,7.45
2024-01-08T03:49:28.751Z,7.46
2024-01-08T03:51:55.523Z,7.45
2024-01-08T03:54:22.421Z,7.49
2024-01-08T03:56:49.437Z,7.52
2024-01-08T03:59:16.672Z,7.57
2024-01-08T04:01:45.630Z,7.55
2024-01-08T04:04:13.133Z,7.62
2024-01-08T04:06:40.029Z,7.58
2024-01-08T04:09:07.041Z,7.57
2024-01-08T04:11:33.914Z,7.59
2024-01-08T04:14:01.083Z,7.60
2024-01-08T04:16:27.869Z,7.57
2024-01-08T04:18:54.836Z,7.57
2024-01-08T04:21:21.689Z,7.56
2024-01-08T04:23:48.460Z,7.56
2024-01-08T04:26:20.217Z,7.49
2024-01-08T04:28:50.041Z,7.47
2024-01-08T04:31:20.833Z,7.53
2024-01-08T04:33:48.889Z,7.52
2024-01-08T04:36:16.008Z,7.51
2024-01-08T04:38:45.846Z,7.49
2024-01-08T04:41:19.644Z,7.48
2024-01-08T04:43:47.517Z,7.47
2024-01-08T04:46:15.115Z,7.44
2024-01-08T04:48:46.832Z,7.43
2024-01-08T04:51:26.755Z,7.38
2024-01-08T04:53:53.956Z,7.38
2024-01-08T04:56:25.495Z,7.35
2024-01-08T04:58:54.188Z,7.31
2024-01-08T05:01:21.464Z,7.37
2024-01-08T05:03:48.587Z,7.34
2024-01-08T05:06:15.859Z,7.29
2024-01-08T05:08:42.845Z,7.28
2024-01-08T05:11:10.192Z,7.23
2024-01-08T05:13:36.962Z,7.21
2024-01-08T05:16:03.967Z,7.19
2024-01-08T05:18:30.961Z,7.16
2024-01-08T05:20:57.908Z,7.21
2024-01-08T05:23:24.712Z,7.11
2024-01-08T05:25:51.693Z,7.03
2024-01-08T05:28:18.641Z,6.93
2024-01-08T05:30:45.584Z,6.89
2024-01-08T05:33:12.668Z,6.83
2024-01-08T05:35:39.639Z,6.82
2024-01-08T05:38:07.386Z,6.84
2024-01-08T05:40:34.753Z,6.84
2024-01-08T05:43:03.602Z,6.83
2024-01-08T05:45:31.476Z,6.85
2024-01-08T05:47:58.802Z,6.83
2024-01-08T05:50:31.336Z,6.83
2024-01-08T05:52:58.156Z,6.74
2024-01-08T05:55:25.197Z,6.65
2024-01-08T05:57:52.400Z,6.59
2024-01-08T06:00:19.502Z,6.52
2024-01-08T06:02:46.254Z,6.41
2024-01-08T06:05:17.629Z,6.34
2024-01-08T06:07:44.869Z,6.25
2024-01-08T06:10:11.940Z,6.19
2024-01-08T06:12:39.141Z,6.08
2024-01-08T06:15:06.782Z,6.02
2024-01-08T06:17:34.127Z,5.91
2024-01-08T06:20:01.116Z,5.94
2024-01-08T06:22:28.353Z,5.84
2024-01-08T06:24:55.126Z,5.80
2024-01-08T06:27:21.950Z,5.77
2024-01-08T06:29:48.855Z,5.75
2024-01-08T06:32:15.655Z,5.68
2024-01-08T06:34:42.744Z,5.67
2024-01-08T06:37:09.480Z,5.69
2024-01-08T06:39:36.487Z,5.72
2024-01-08T06:42:03.953Z,5.72
2024-01-08T06:44:30.748Z,5.75
2024-01-08T06:46:57.796Z,5.74
2024-01-08T06:49:24.804Z,5.77
2024-01-08T06:51:51.601Z,5.80
2024-01-08T06:54:18.301Z,5.84
2024-01-08T06:56:48.226Z,5.77
2024-01-08T06:59:17.111Z,5.75
2024-01-08T07:01:43.989Z,5.83
2024-01-08T07:04:10.755Z,5.84
2024-01-08T07:06:38.130Z,5.84
2024-01-08T07:09:05.072Z,5.82
2024-01-08T07:11:31.960Z,5.75
2024-01-08T07:14:00.544Z,5.76
2024-01-08T07:16:28.184Z,5.77
2024-01-08T07:18:55.844Z,5.72
2024-01-08T07:21:23.849Z,5.71
2024-01-08T07:23:51.492Z,5.76
2024-01-08T07:26:18.538Z,5.67
2024-01-08T07:28:46.799Z,5.70
2024-01-08T07:31:16.870Z,5.73
2024-01-08T07:33:44.148Z,5.76
2024-01-08T07:36:11.588Z,5.78
2024-01-08T07:38:38.773Z,5.79
2024-01-08T07:41:09.016Z,5.86
2024-01-08T07:43:38.018Z,5.85
2024-01-08T07:46:05.243Z,5.82
2024-01-08T07:48:32.524Z,5.83
2024-01-08T07:51:00.036Z,5.83
2024-01-08T07:53:27.060Z,5.77
2024-01-08T07:55:54.279Z,5.74
2024-01-08T07:58:28.057Z,5.65
2024-01-08T08:01:02.538Z,5.70
2024-01-08T08:03:29.528Z,5.73
2024-01-08T08:05:56.924Z,5.72
2024-01-08T08:08:24.004Z,5.72
2024-01-08T08:10:50.941Z,5.71
2024-01-08T08:13:17.776Z,5.75
2024-01-08T08:15:44.834Z,5.66
2024-01-08T08:18:11.822Z,5.57
2024-01-08T08:20:38.765Z,5.57
2024-01-08T08:23:05.843Z,5.57
2024-01-08T08:25:32.720Z,5.57
2024-01-08T08:27:59.608Z,5.53
2024-01-08T08:30:27.481Z,5.49
2024-01-08T08:32:58.069Z,5.51
2024-01-08T08:35:25.237Z,5.49
2024-01-08T08:37:54.297Z,5.54
2024-01-08T08:40:23.192Z,5.52
2024-01-08T08:42:50.778Z,5.53
2024-01-08T08:45:19.387Z,5.57
2024-01-08T08:47:46.744Z,5.51
2024-01-08T08:50:14.174Z,5.50
2024-01-08T08:52:41.231Z,5.46
2024-01-08T08:55:10.399Z,5.35
2024-01-08T08:57:38.523Z,5.27
2024-01-08T09:00:10.293Z,5.19
2024-01-08T09:02:37.648Z,5.13
2024-01-08T09:05:07.104Z,5.03
2024-01-08T09:07:34.215Z,4.97
2024-01-08T09:10:02.305Z,4.96
2024-01-08T09:12:29.372Z,4.93
2024-01-08T09:14:57.127Z,4.88
2024-01-08T09:17:24.397Z,4.78
2024-01-08T09:19:56.633Z,4.78
2024-01-08T09:22:28.115Z,4.74
2024-01-08T09:24:55.224Z,4.71
2024-01-08T09:27:22.178Z,4.70
2024-01-08T09:29:49.945Z,4.69
2024-01-08T09:32:16.717Z,4.57
2024-01-08T09:34:46.512Z,4.52
2024-01-08T09:37:13.334Z,4.51
2024-01-08T09:39:41.145Z,4.50
2024-01-08T09:42:10.758Z,4.47
2024-01-08T09:44:39.578Z,4.46
2024-01-08T09:47:07.047Z,4.42
2024-01-08T09:49:35.766Z,4.40
2024-01-08T09:52:03.337Z,4.34
2024-01-08T09:54:30.951Z,4.38
2024-01-08T09:57:00.023Z,4.49
2024-01-08T09:59:27.713Z,4.50
2024-01-08T10:01:57.987Z,4.57
2024-01-08T10:04:28.056Z,4.59
2024-01-08T10:07:08.703Z,4.64
2024-01-08T10:09:36.699Z,4.59
2024-01-08T10:12:04.473Z,4.54
2024-01-08T10:14:31.489Z,4.53
2024-01-08T10:17:02.653Z,4.57
2024-01-08T10:19:31.783Z,4.59
2024-01-08T10:22:13.578Z,4.65
2024-01-08T10:24:42.572Z,4.65
2024-01-08T10:27:10.413Z,4.66
2024-01-08T10:29:38.976Z,4.54
2024-01-08T10:32:07.217Z,4.45
2024-01-08T10:34:37.443Z,4.46
2024-01-08T10:37:04.528Z,4.47
2024-01-08T10:39:43.945Z,4.53
2024-01-08T10:42:17.856Z,4.47
2024-01-08T10:44:45.019Z,4.45
2024-01-08T10:47:25.551Z,4.52
2024-01-08T10:50:00.281Z,4.56
2024-01-08T10:52:36.049Z,4.60
2024-01-08T10:55:06.086Z,4.59
2024-01-08T10:57:51.402Z,4.58
2024-01-08T11:00:19.276Z,4.56
2024-01-08T11:02:46.327Z,4.66
2024-01-08T11:05:15.569Z,4.74
2024-01-08T11:07:43.833Z,4.78
2024-01-08T11:10:11.019Z,4.80
2024-01-08T11:12:40.109Z,4.83
2024-01-08T11:15:07.801Z,4.92
2024-01-08T11:17:36.042Z,4.93
2024-01-08T11:20:08.031Z,4.90
2024-01-08T11:22:39.745Z,4.84
2024-01-08T11:25:07.404Z,4.91
2024-01-08T11:27:34.473Z,4.85
2024-01-08T11:30:05.931Z,4.81
2024-01-08T11:32:36.319Z,4.80
2024-01-08T11:35:10.274Z,4.82
2024-01-08T11:37:41.113Z,4.82
2024-01-08T11:40:19.890Z,4.77
2024-01-08T11:42:49.097Z,4.76
2024-01-08T11:45:17.684Z,4.69
2024-01-08T11:47:45.648Z,4.60
2024-01-08T11:50:13.890Z,4.59
2024-01-08T11:52:41.431Z,4.62
2024-01-08T11:55:09.605Z,4.61
2024-01-08T11:57:39.665Z,4.54
2024-01-08T12:00:21.157Z,4.53
2024-01-08T12:02:48.868Z,4.53
2024-01-08T12:05:16.736Z,4.45
2024-01-08T12:07:43.767Z,4.45
2024-01-08T12:10:14.042Z,4.37
2024-01-08T12:12:42.092Z,4.28
2024-01-08T12:15:10.099Z,4.26
2024-01-08T12:17:38.078Z,4.17
2024-01-08T12:20:05.686Z,4.09
2024-01-08T12:22:33.097Z,4.03
2024-01-08T12:25:00.477Z,3.99
2024-01-08T12:27:31.889Z,3.96
2024-01-08T12:29:59.782Z,3.97
2024-01-08T12:32:30.088Z,3.95
2024-01-08T12:34:57.392Z,3.86
2024-01-08T12:37:25.303Z,3.85
2024-01-08T12:39:52.163Z,3.91
2024-01-08T12:42:20.578Z,3.89
2024-01-08T12:44:51.528Z,3.92
2024-01-08T12:47:18.748Z,3.85
2024-01-08T12:49:46.004Z,3.76
2024-01-08T12:52:14.171Z,3.71
2024-01-08T12:54:42.866Z,3.71
2024-01-08T12:57:12.491Z,3.76
2024-01-08T12:59:52.524Z,3.78
2024-01-08T13:02:25.221Z,3.76
2024-01-08T13:04:55.305Z,3.63
2024-01-08T13:07:22.079Z,3.58
2024-01-08T13:09:49.668Z,3.59
2024-01-08T13:12:16.658Z,3.54
2024-01-08T13:14:43.581Z,3.48
2024-01-08T13:17:13.711Z,3.37
2024-01-08T13:19:41.207Z,3.30
2024-01-08T13:22:08.907Z,3.28
2024-01-08T13:24:36.326Z,3.21
2024-01-08T13:27:03.326Z,3.23
2024-01-08T13:29:30.291Z,3.24
2024-01-08T13:31:57.053Z,3.24
2024-01-08T13:34:23.945Z,3.23
2024-01-08T13:36:51.272Z,3.19
2024-01-08T13:39:18.312Z,3.16
2024-01-08T13:41:48.350Z,3.09
2024-01-08T13:44:15.878Z,3.06
2024-01-08T13:46:42.862Z,3.05
2024-01-08T13:49:09.758Z,3.05
2024-01-08T13:51:36.654Z,3.06
2024-01-08T13:54:06.715Z,3.10
2024-01-08T13:56:34.736Z,3.10
2024-01-08T13:59:01.971Z,3.05
2024-01-08T14:01:28.886Z,3.07
2024-01-08T14:03:55.998Z,3.16
2024-01-08T14:06:23.020Z,3.14
2024-01-08T14:08:49.984Z,3.10
2024-01-08T14:11:17.032Z,3.11
2024-01-08T14:13:43.745Z,3.18
2024-01-08T14:16:10.505Z,3.11
2024-01-08T14:18:37.652Z,3.11
2024-01-08T14:21:07.970Z,3.14
2024-01-08T14:23:34.808Z,3.21
2024-01-08T14:26:03.552Z,3.26
2024-01-08T14:28:30.550Z,3.22
2024-01-08T14:30:58.097Z,3.23
2024-01-08T14:33:25.762Z,3.21
2024-01-08T14:35:53.542Z,3.22
2024-01-08T14:38:21.860Z,3.23
2024-01-08T14:40:50.239Z,3.21
2024-01-08T14:43:18.493Z,3.22
2024-01-08T14:45:46.241Z,3.20
2024-01-08T14:48:14.474Z,3.17
2024-01-08T14:50:42.792Z,3.19
2024-01-08T14:53:09.726Z,3.22
2024-01-08T14:55:36.516Z,3.21
2024-01-08T14:58:03.500Z,3.23
2024-01-08T15:00:30.422Z,3.17
2024-01-08T15:02:57.406Z,3.22
2024-01-08T15:05:25.179Z,3.12
2024-01-08T15:07:53.418Z,3.08
2024-01-08T15:10:20.455Z,3.09
2024-01-08T15:12:48.042Z,3.04
2024-01-08T15:15:14.953Z,3.11
2024-01-08T15:17:42.046Z,3.10
2024-01-08T15:20:10.069Z,3.16
2024-01-08T15:22:37.033Z,3.19
2024-01-08T15:25:03.977Z,3.09
2024-01-08T15:27:30.956Z,3.14
2024-01-08T15:29:58.029Z,3.11
2024-01-08T15:32:26.264Z,3.06
2024-01-08T15:34:53.208Z,3.05
2024-01-08T15:37:20.411Z,2.96
2024-01-08T15:39:47.541Z,2.87
2024-01-08T15:42:14.562Z,2.85
2024-01-08T15:44:41.748Z,2.78
2024-01-08T15:47:09.940Z,2.76
2024-01-08T15:49:36.845Z,2.74
2024-01-08T15:52:04.322Z,2.75
2024-01-08T15:54:31.502Z,2.77
2024-01-08T15:56:58.583Z,2.76
2024-01-08T15:59:25.489Z,2.78
2024-01-08T16:01:52.453Z,2.81
2024-01-08T16:04:19.475Z,2.75
2024-01-08T16:06:50.100Z,2.72
2024-01-08T16:09:18.928Z,2.68
2024-01-08T16:11:46.128Z,2.72
2024-01-08T16:14:13.218Z,2.70
2024-01-08T16:16:42.721Z,2.65
2024-01-08T16:19:09.730Z,2.55
2024-01-08T16:21:36.888Z,2.41
2024-01-08T16:24:10.524Z,2.36
2024-01-08T16:26:41.223Z,2.30
2024-01-08T16:29:08.990Z,2.24
2024-01-08T16:31:36.254Z,2.23
2024-01-08T16:34:03.200Z,2.20
2024-01-08T16:36:31.588Z,2.13
2024-01-08T16:38:59.069Z,2.15
2024-01-08T16:41:25.916Z,2.28
2024-01-08T16:43:54.107Z,2.20
2024-01-08T16:46:20.755Z,2.13
2024-01-08T16:48:47.767Z,2.04
2024-01-08T16:51:15.936Z,2.04
2024-01-08T16:53:42.730Z,1.98
2024-01-08T16:56:09.767Z,1.90
2024-01-08T16:58:37.261Z,1.82
2024-01-08T17:01:07.659Z,1.80
2024-01-08T17:03:34.589Z,1.77
2024-01-08T17:06:03.830Z,1.74
2024-01-08T17:08:32.422Z,1.69
2024-01-08T17:10:59.585Z,1.67
2024-01-08T17:13:26.439Z,1.63
2024-01-08T17:15:54.032Z,1.61
2024-01-08T17:18:23.643Z,1.61
2024-01-08T17:20:51.395Z,1.50
2024-01-08T17:23:18.667Z,1.49
2024-01-08T17:25:45.733Z,1.47
2024-01-08T17:28:12.823Z,1.43
2024-01-08T17:30:40.133Z,1.36
2024-01-08T17:33:07.645Z,1.33
2024-01-08T17:35:54.692Z,1.25
2024-01-08T17:38:21.621Z,1.19
2024-01-08T17:40:48.428Z,1.29
2024-01-08T17:43:15.536Z,1.22
2024-01-08T17:45:42.350Z,1.24
2024-01-08T17:48:09.543Z,1.22
2024-01-08T17:50:36.531Z,1.25
2024-01-08T17:53:03.667Z,1.29
2024-01-08T17:55:30.737Z,1.34
2024-01-08T17:57:57.531Z,1.24
2024-01-08T18:00:26.227Z,1.30
2024-01-08T18:02:53.054Z,1.33
2024-01-08T18:05:25.960Z,1.25
2024-01-08T18:08:04.611Z,1.18
2024-01-08T18:10:45.363Z,1.09
2024-01-08T18:13:17.599Z,0.91
2024-01-08T18:15:47.142Z,0.86
2024-01-08T18:18:29.993Z,0.79
2024-01-08T18:21:02.981Z,0.76
2024-01-08T18:23:35.053Z,0.74
2024-01-08T18:26:24.084Z,0.71
2024-01-08T18:29:22.432Z,0.65
2024-01-08T18:31:51.452Z,0.63
2024-01-08T18:34:46.069Z,0.78
2024-01-08T18:37:12.939Z,0.80
2024-01-08T18:39:54.031Z,0.81
2024-01-08T18:42:41.418Z,0.84
2024-01-08T18:45:22.467Z,0.81
2024-01-08T18:48:24.529Z,0.80
2024-01-08T18:51:00.719Z,0.82
2024-01-08T18:53:34.060Z,0.81
2024-01-08T18:56:03.236Z,0.75
2024-01-08T18:58:41.485Z,0.66
2024-01-08T19:01:16.524Z,0.68
2024-01-08T19:04:11.722Z,0.67
2024-01-08T19:06:47.777Z,0.61
2024-01-08T19:09:16.740Z,0.57
2024-01-08T19:12:04.079Z,0.51
2024-01-08T19:14:39.525Z,0.36
2024-01-08T19:17:45.363Z,0.27
2024-01-08T19:20:46.030Z,0.20
2024-01-08T19:23:35.425Z,0.21
2024-01-08T19:26:11.170Z,0.20
2024-01-08T19:28:43.583Z,0.20
2024-01-08T19:31:14.148Z,0.11
2024-01-08T19:33:46.650Z,0.15
2024-01-08T19:36:15.661Z,0.15
2024-01-08T19:38:44.827Z,0.18
2024-01-08T19:41:15.393Z,0.23
2024-01-08T19:43:44.665Z,0.31
2024-01-08T19:49:21.385Z,0.25
2024-01-08T19:52:02.267Z,0.24
2024-01-08T19:54:30.626Z,0.19
2024-01-08T19:56:59.764Z,-0.01
2024-01-08T19:59:28.044Z,-0.01
2024-01-08T20:02:00.362Z,-0.01
2024-01-08T20:04:30.976Z,-0.05
2024-01-08T20:07:02.995Z,-0.08
2024-01-08T20:09:31.835Z,-0.06
2024-01-08T20:12:03.228Z,0.01
2024-01-08T20:14:37.091Z,-0.09
2024-01-08T20:17:27.590Z,-0.20
2024-01-08T20:19:53.826Z,-0.16
2024-01-08T20:22:26.154Z,-0.19
2024-01-08T20:24:55.098Z,-0.35
2024-01-08T20:27:23.819Z,-0.45
2024-01-08T20:29:52.741Z,-0.53
2024-01-08T20:32:23.097Z,-0.64
2024-01-08T20:34:51.582Z,-0.62
2024-01-08T20:37:25.618Z,-0.65
2024-01-08T20:39:57.389Z,-0.70
2024-01-08T20:42:26.973Z,-0.71
2024-01-08T20:44:58.422Z,-0.77
2024-01-08T20:47:27.771Z,-0.77
2024-01-08T20:49:56.450Z,-0.80
2024-01-08T20:52:27.241Z,-0.79
2024-01-08T20:54:56.729Z,-0.78
2024-01-08T20:57:33.530Z,-0.80
2024-01-08T21:00:07.666Z,-0.81
2024-01-08T21:02:38.942Z,-0.77
2024-01-08T21:05:28.643Z,-0.88
2024-01-08T21:07:59.660Z,-0.92
2024-01-08T21:10:29.510Z,-0.86
2024-01-08T21:12:59.066Z,-0.94
2024-01-08T21:15:27.560Z,-0.90
2024-01-08T21:18:00.947Z,-0.85
2024-01-08T21:20:29.947Z,-0.82
2024-01-08T21:23:01.254Z,-0.78
2024-01-08T21:25:29.821Z,-0.78
2024-01-08T21:27:58.063Z,-0.83
2024-01-08T21:30:32.156Z,-0.92
2024-01-08T21:33:29.719Z,-0.94
2024-01-08T21:35:57.936Z,-0.97
2024-01-08T21:38:26.158Z,-1.14
2024-01-08T21:41:00.531Z,-1.16
2024-01-08T21:43:28.512Z,-1.19
2024-01-08T21:46:01.208Z,-1.12
2024-01-08T21:48:52.694Z,-1.11
2024-01-08T21:51:20.971Z,-1.04
2024-01-08T21:53:47.918Z,-1.10
2024-01-08T21:56:14.905Z,-1.19
2024-01-08T21:58:41.726Z,-1.26
2024-01-08T22:01:09.915Z,-1.29
2024-01-08T22:03:36.939Z,-1.22
2024-01-08T22:06:06.766Z,-1.24
2024-01-08T22:08:36.648Z,-1.19
2024-01-08T22:11:03.615Z,-1.33
2024-01-08T22:13:30.534Z,-1.52
2024-01-08T22:15:57.527Z,-1.51
2024-01-08T22:18:25.140Z,-1.48
2024-01-08T22:20:51.980Z,-1.42
2024-01-08T22:23:19.010Z,-1.44
2024-01-08T22:25:48.956Z,-1.56
2024-01-08T22:28:16.142Z,-1.60
2024-01-08T22:30:43.046Z,-1.72
2024-01-08T22:33:10.314Z,-1.82
2024-01-08T22:35:37.147Z,-1.85
2024-01-08T22:38:04.179Z,-1.88
2024-01-08T22:40:31.029Z,-1.93
2024-01-08T22:42:57.740Z,-2.08
2024-01-08T22:45:25.157Z,-2.08
2024-01-08T22:47:51.956Z,-2.16
2024-01-08T22:50:19.307Z,-2.17
2024-01-08T22:52:46.152Z,-2.20
2024-01-08T22:55:13.061Z,-2.19
2024-01-08T22:57:40.122Z,-2.15
2024-01-08T23:00:09.257Z,-2.14
2024-01-08T23:02:39.152Z,-2.12
2024-01-08T23:05:07.457Z,-2.28
2024-01-08T23:07:34.345Z,-2.49
2024-01-08T23:10:01.107Z,-2.45
2024-01-08T23:12:27.837Z,-2.47
2024-01-08T23:14:55.824Z,-2.70
2024-01-08T23:17:22.725Z,-2.71
2024-01-08T23:19:49.498Z,-2.68
2024-01-08T23:22:16.480Z,-2.62
2024-01-08T23:24:43.450Z,-2.59
2024-01-08T23:27:10.388Z,-2.55
2024-01-08T23:29:37.574Z,-2.56
2024-01-08T23:32:05.043Z,-2.60
2024-01-08T23:34:32.238Z,-2.59
2024-01-08T23:36:59.117Z,-2.62
2024-01-08T23:39:25.938Z,-2.60
2024-01-08T23:41:52.762Z,-2.62
2024-01-08T23:44:19.721Z,-2.62
2024-01-08T23:46:46.625Z,-2.81
2024-01-08T23:49:13.733Z,-2.91
2024-01-08T23:51:40.849Z,-3.06
2024-01-08T23:54:07.855Z,-3.22
2024-01-08T23:56:35.004Z,-3.15
2024-01-08T23:59:02.038Z,-3.21
